sensor_id;sensor_type;location;lat;lon;timestamp;P1;durP1;ratioP1;P2;durP2;ratioP2
11453;SDS011;5783;55.174;61.310;2023-08-30T00:01:19;3.33;;;1.70;;
11453;SDS011;5783;55.174;61.310;2023-08-30T00:03:49;2.90;;;1.90;;
11453;SDS011;5783;55.174;61.310;2023-08-30T00:06:18;2.10;;;1.80;;
11453;SDS011;5783;55.174;61.310;2023-08-30T00:08:47;3.20;;;2.00;;
11453;SDS011;5783;55.174;61.310;2023-08-30T00:11:17;3.17;;;2.20;;
11453;SDS011;5783;55.174;61.310;2023-08-30T00:13:46;4.70;;;2.30;;
11453;SDS011;5783;55.174;61.310;2023-08-30T00:16:17;3.17;;;2.00;;
11453;SDS011;5783;55.174;61.310;2023-08-30T00:18:46;3.90;;;2.40;;
11453;SDS011;5783;55.174;61.310;2023-08-30T00:21:15;3.77;;;2.30;;
11453;SDS011;5783;55.174;61.310;2023-08-30T00:23:44;3.10;;;2.30;;
11453;SDS011;5783;55.174;61.310;2023-08-30T00:26:14;5.27;;;2.60;;
11453;SDS011;5783;55.174;61.310;2023-08-30T00:28:43;3.83;;;2.30;;
11453;SDS011;5783;55.174;61.310;2023-08-30T00:31:12;2.93;;;1.90;;
11453;SDS011;5783;55.174;61.310;2023-08-30T00:33:41;3.43;;;2.30;;
11453;SDS011;5783;55.174;61.310;2023-08-30T00:36:10;2.93;;;2.20;;
11453;SDS011;5783;55.174;61.310;2023-08-30T00:38:40;3.07;;;2.20;;
11453;SDS011;5783;55.174;61.310;2023-08-30T00:41:09;4.47;;;2.03;;
11453;SDS011;5783;55.174;61.310;2023-08-30T00:43:38;2.63;;;1.90;;
11453;SDS011;5783;55.174;61.310;2023-08-30T00:46:08;2.87;;;2.10;;
11453;SDS011;5783;55.174;61.310;2023-08-30T00:48:37;3.17;;;2.17;;
11453;SDS011;5783;55.174;61.310;2023-08-30T00:51:07;2.97;;;1.97;;
11453;SDS011;5783;55.174;61.310;2023-08-30T00:53:37;3.83;;;1.93;;
11453;SDS011;5783;55.174;61.310;2023-08-30T00:56:06;3.10;;;2.10;;
11453;SDS011;5783;55.174;61.310;2023-08-30T00:58:36;2.63;;;1.97;;
11453;SDS011;5783;55.174;61.310;2023-08-30T01:01:06;2.33;;;1.87;;
11453;SDS011;5783;55.174;61.310;2023-08-30T01:03:35;3.57;;;1.83;;
11453;SDS011;5783;55.174;61.310;2023-08-30T01:06:05;2.10;;;1.70;;
11453;SDS011;5783;55.174;61.310;2023-08-30T01:08:34;3.03;;;1.90;;
11453;SDS011;5783;55.174;61.310;2023-08-30T01:16:45;2.43;;;1.60;;
11453;SDS011;5783;55.174;61.310;2023-08-30T01:28:39;2.20;;;1.50;;
11453;SDS011;5783;55.174;61.310;2023-08-30T01:31:09;3.27;;;1.77;;
11453;SDS011;5783;55.174;61.310;2023-08-30T01:33:39;2.33;;;1.50;;
11453;SDS011;5783;55.174;61.310;2023-08-30T01:36:09;2.07;;;1.30;;
11453;SDS011;5783;55.174;61.310;2023-08-30T01:38:39;2.53;;;1.30;;
11453;SDS011;5783;55.174;61.310;2023-08-30T01:41:09;1.23;;;1.13;;
11453;SDS011;5783;55.174;61.310;2023-08-30T01:43:39;1.47;;;1.20;;
11453;SDS011;5783;55.174;61.310;2023-08-30T01:46:09;1.57;;;1.40;;
11453;SDS011;5783;55.174;61.310;2023-08-30T01:48:39;1.27;;;1.00;;
11453;SDS011;5783;55.174;61.310;2023-08-30T01:51:09;1.40;;;1.07;;
11453;SDS011;5783;55.174;61.310;2023-08-30T01:53:39;2.93;;;1.47;;
11453;SDS011;5783;55.174;61.310;2023-08-30T01:56:08;1.57;;;1.43;;
11453;SDS011;5783;55.174;61.310;2023-08-30T01:58:37;1.20;;;1.10;;
11453;SDS011;5783;55.174;61.310;2023-08-30T02:01:07;1.80;;;1.20;;
11453;SDS011;5783;55.174;61.310;2023-08-30T02:03:36;1.53;;;1.00;;
11453;SDS011;5783;55.174;61.310;2023-08-30T02:11:29;1.57;;;1.13;;
11453;SDS011;5783;55.174;61.310;2023-08-30T02:14:01;1.50;;;1.00;;
11453;SDS011;5783;55.174;61.310;2023-08-30T02:16:33;0.70;;;0.70;;
11453;SDS011;5783;55.174;61.310;2023-08-30T02:19:03;1.23;;;1.10;;
11453;SDS011;5783;55.174;61.310;2023-08-30T02:21:33;1.17;;;0.80;;
11453;SDS011;5783;55.174;61.310;2023-08-30T02:24:03;1.97;;;0.80;;
11453;SDS011;5783;55.174;61.310;2023-08-30T02:26:32;1.63;;;0.87;;
11453;SDS011;5783;55.174;61.310;2023-08-30T02:29:02;1.10;;;1.00;;
11453;SDS011;5783;55.174;61.310;2023-08-30T02:31:31;2.03;;;0.97;;
11453;SDS011;5783;55.174;61.310;2023-08-30T02:34:00;1.13;;;0.80;;
11453;SDS011;5783;55.174;61.310;2023-08-30T02:36:29;1.03;;;0.70;;
11453;SDS011;5783;55.174;61.310;2023-08-30T02:38:58;0.87;;;0.70;;
11453;SDS011;5783;55.174;61.310;2023-08-30T02:41:29;0.60;;;0.60;;
11453;SDS011;5783;55.174;61.310;2023-08-30T02:43:58;1.07;;;0.77;;
11453;SDS011;5783;55.174;61.310;2023-08-30T02:46:28;0.97;;;0.83;;
11453;SDS011;5783;55.174;61.310;2023-08-30T02:48:57;1.27;;;0.87;;
11453;SDS011;5783;55.174;61.310;2023-08-30T02:51:26;1.27;;;0.70;;
11453;SDS011;5783;55.174;61.310;2023-08-30T02:53:56;0.80;;;0.70;;
11453;SDS011;5783;55.174;61.310;2023-08-30T02:56:25;0.60;;;0.60;;
11453;SDS011;5783;55.174;61.310;2023-08-30T02:58:54;0.70;;;0.70;;
11453;SDS011;5783;55.174;61.310;2023-08-30T03:01:23;0.50;;;0.50;;
11453;SDS011;5783;55.174;61.310;2023-08-30T03:03:52;0.70;;;0.70;;
11453;SDS011;5783;55.174;61.310;2023-08-30T03:06:21;1.03;;;0.80;;
11453;SDS011;5783;55.174;61.310;2023-08-30T03:08:50;0.60;;;0.60;;
11453;SDS011;5783;55.174;61.310;2023-08-30T03:11:21;0.60;;;0.60;;
11453;SDS011;5783;55.174;61.310;2023-08-30T03:13:50;1.70;;;0.97;;
11453;SDS011;5783;55.174;61.310;2023-08-30T03:16:21;0.90;;;0.73;;
11453;SDS011;5783;55.174;61.310;2023-08-30T03:18:50;0.70;;;0.70;;
11453;SDS011;5783;55.174;61.310;2023-08-30T03:21:19;1.50;;;0.87;;
11453;SDS011;5783;55.174;61.310;2023-08-30T03:23:48;0.93;;;0.80;;
11453;SDS011;5783;55.174;61.310;2023-08-30T03:26:18;0.67;;;0.60;;
11453;SDS011;5783;55.174;61.310;2023-08-30T03:28:47;1.20;;;0.83;;
11453;SDS011;5783;55.174;61.310;2023-08-30T03:31:17;0.90;;;0.90;;
11453;SDS011;5783;55.174;61.310;2023-08-30T03:33:48;0.80;;;0.70;;
11453;SDS011;5783;55.174;61.310;2023-08-30T03:36:18;0.70;;;0.70;;
11453;SDS011;5783;55.174;61.310;2023-08-30T03:38:47;1.30;;;1.10;;
11453;SDS011;5783;55.174;61.310;2023-08-30T03:41:17;0.87;;;0.60;;
11453;SDS011;5783;55.174;61.310;2023-08-30T03:43:46;0.93;;;0.83;;
11453;SDS011;5783;55.174;61.310;2023-08-30T03:46:15;1.37;;;0.70;;
11453;SDS011;5783;55.174;61.310;2023-08-30T03:48:44;1.40;;;1.00;;
11453;SDS011;5783;55.174;61.310;2023-08-30T03:51:14;1.63;;;0.80;;
11453;SDS011;5783;55.174;61.310;2023-08-30T03:53:43;0.80;;;0.80;;
11453;SDS011;5783;55.174;61.310;2023-08-30T03:56:12;1.10;;;0.70;;
11453;SDS011;5783;55.174;61.310;2023-08-30T03:58:41;1.03;;;0.90;;
11453;SDS011;5783;55.174;61.310;2023-08-30T04:01:10;1.07;;;0.97;;
11453;SDS011;5783;55.174;61.310;2023-08-30T04:03:39;0.80;;;0.77;;
11453;SDS011;5783;55.174;61.310;2023-08-30T04:06:09;1.03;;;0.90;;
11453;SDS011;5783;55.174;61.310;2023-08-30T04:08:38;0.67;;;0.67;;
11453;SDS011;5783;55.174;61.310;2023-08-30T04:11:07;1.20;;;1.10;;
11453;SDS011;5783;55.174;61.310;2023-08-30T04:13:36;1.30;;;0.80;;
11453;SDS011;5783;55.174;61.310;2023-08-30T04:16:05;3.57;;;0.87;;
11453;SDS011;5783;55.174;61.310;2023-08-30T04:18:34;1.17;;;0.77;;
11453;SDS011;5783;55.174;61.310;2023-08-30T04:21:03;0.87;;;0.80;;
11453;SDS011;5783;55.174;61.310;2023-08-30T04:23:34;1.23;;;0.90;;
11453;SDS011;5783;55.174;61.310;2023-08-30T04:26:04;1.20;;;1.10;;
11453;SDS011;5783;55.174;61.310;2023-08-30T04:28:33;1.40;;;0.83;;
11453;SDS011;5783;55.174;61.310;2023-08-30T04:31:02;1.43;;;1.03;;
11453;SDS011;5783;55.174;61.310;2023-08-30T04:33:31;0.80;;;0.80;;
11453;SDS011;5783;55.174;61.310;2023-08-30T04:36:00;1.13;;;0.97;;
11453;SDS011;5783;55.174;61.310;2023-08-30T04:38:30;1.17;;;0.83;;
11453;SDS011;5783;55.174;61.310;2023-08-30T04:40:59;1.10;;;1.00;;
11453;SDS011;5783;55.174;61.310;2023-08-30T04:43:28;1.17;;;1.00;;
11453;SDS011;5783;55.174;61.310;2023-08-30T04:45:57;0.80;;;0.80;;
11453;SDS011;5783;55.174;61.310;2023-08-30T04:48:27;1.90;;;1.17;;
11453;SDS011;5783;55.174;61.310;2023-08-30T04:53:45;1.50;;;1.40;;
11453;SDS011;5783;55.174;61.310;2023-08-30T04:56:14;1.40;;;1.20;;
11453;SDS011;5783;55.174;61.310;2023-08-30T04:58:44;2.33;;;1.40;;
11453;SDS011;5783;55.174;61.310;2023-08-30T05:01:13;2.10;;;1.90;;
11453;SDS011;5783;55.174;61.310;2023-08-30T05:03:42;3.73;;;2.20;;
11453;SDS011;5783;55.174;61.310;2023-08-30T05:06:11;2.10;;;1.83;;
11453;SDS011;5783;55.174;61.310;2023-08-30T05:08:42;2.70;;;1.60;;
11453;SDS011;5783;55.174;61.310;2023-08-30T05:11:11;2.20;;;2.00;;
11453;SDS011;5783;55.174;61.310;2023-08-30T05:13:41;2.67;;;2.07;;
11453;SDS011;5783;55.174;61.310;2023-08-30T05:16:10;3.13;;;2.43;;
11453;SDS011;5783;55.174;61.310;2023-08-30T05:18:40;3.37;;;2.20;;
11453;SDS011;5783;55.174;61.310;2023-08-30T05:21:09;3.10;;;2.17;;
11453;SDS011;5783;55.174;61.310;2023-08-30T05:23:38;3.63;;;2.33;;
11453;SDS011;5783;55.174;61.310;2023-08-30T05:26:27;3.87;;;2.70;;
11453;SDS011;5783;55.174;61.310;2023-08-30T05:28:56;3.53;;;2.37;;
11453;SDS011;5783;55.174;61.310;2023-08-30T05:31:25;3.67;;;2.40;;
11453;SDS011;5783;55.174;61.310;2023-08-30T05:33:54;5.60;;;2.70;;
11453;SDS011;5783;55.174;61.310;2023-08-30T05:36:24;3.13;;;2.57;;
11453;SDS011;5783;55.174;61.310;2023-08-30T05:38:53;5.93;;;2.50;;
11453;SDS011;5783;55.174;61.310;2023-08-30T05:41:22;5.33;;;2.70;;
11453;SDS011;5783;55.174;61.310;2023-08-30T05:43:51;3.07;;;2.37;;
11453;SDS011;5783;55.174;61.310;2023-08-30T05:46:20;3.87;;;2.80;;
11453;SDS011;5783;55.174;61.310;2023-08-30T05:48:49;6.47;;;3.00;;
11453;SDS011;5783;55.174;61.310;2023-08-30T05:51:20;4.70;;;2.93;;
11453;SDS011;5783;55.174;61.310;2023-08-30T05:53:49;6.50;;;2.87;;
11453;SDS011;5783;55.174;61.310;2023-08-30T05:56:18;4.73;;;3.00;;
11453;SDS011;5783;55.174;61.310;2023-08-30T05:58:48;7.70;;;3.03;;
11453;SDS011;5783;55.174;61.310;2023-08-30T06:01:17;4.83;;;3.00;;
11453;SDS011;5783;55.174;61.310;2023-08-30T06:03:47;6.27;;;3.60;;
11453;SDS011;5783;55.174;61.310;2023-08-30T06:06:16;6.50;;;3.97;;
11453;SDS011;5783;55.174;61.310;2023-08-30T06:08:45;7.77;;;4.53;;
11453;SDS011;5783;55.174;61.310;2023-08-30T06:11:14;8.70;;;5.20;;
11453;SDS011;5783;55.174;61.310;2023-08-30T06:13:43;9.03;;;6.03;;
11453;SDS011;5783;55.174;61.310;2023-08-30T06:16:13;11.40;;;8.33;;
11453;SDS011;5783;55.174;61.310;2023-08-30T06:18:42;12.90;;;9.50;;
11453;SDS011;5783;55.174;61.310;2023-08-30T06:21:11;15.77;;;11.23;;
11453;SDS011;5783;55.174;61.310;2023-08-30T06:23:40;17.80;;;12.10;;
11453;SDS011;5783;55.174;61.310;2023-08-30T06:26:09;17.23;;;11.33;;
11453;SDS011;5783;55.174;61.310;2023-08-30T06:28:38;17.47;;;12.63;;
11453;SDS011;5783;55.174;61.310;2023-08-30T06:31:08;17.30;;;12.93;;
11453;SDS011;5783;55.174;61.310;2023-08-30T06:40:00;16.60;;;10.97;;
11453;SDS011;5783;55.174;61.310;2023-08-30T06:42:30;15.80;;;11.00;;
11453;SDS011;5783;55.174;61.310;2023-08-30T06:44:59;16.70;;;10.50;;
11453;SDS011;5783;55.174;61.310;2023-08-30T06:47:32;14.80;;;10.50;;
11453;SDS011;5783;55.174;61.310;2023-08-30T06:50:02;13.20;;;9.73;;
11453;SDS011;5783;55.174;61.310;2023-08-30T06:52:31;14.57;;;9.80;;
11453;SDS011;5783;55.174;61.310;2023-08-30T06:55:00;11.47;;;8.80;;
11453;SDS011;5783;55.174;61.310;2023-08-30T06:57:31;13.07;;;8.80;;
11453;SDS011;5783;55.174;61.310;2023-08-30T07:00:00;15.23;;;8.90;;
11453;SDS011;5783;55.174;61.310;2023-08-30T07:05:05;11.20;;;8.47;;
11453;SDS011;5783;55.174;61.310;2023-08-30T07:07:34;9.87;;;7.60;;
11453;SDS011;5783;55.174;61.310;2023-08-30T07:10:03;11.17;;;7.13;;
11453;SDS011;5783;55.174;61.310;2023-08-30T07:12:33;9.97;;;7.40;;
11453;SDS011;5783;55.174;61.310;2023-08-30T07:15:02;9.27;;;7.07;;
11453;SDS011;5783;55.174;61.310;2023-08-30T07:17:32;10.33;;;6.57;;
11453;SDS011;5783;55.174;61.310;2023-08-30T07:20:01;8.67;;;5.93;;
11453;SDS011;5783;55.174;61.310;2023-08-30T07:22:32;7.87;;;5.90;;
11453;SDS011;5783;55.174;61.310;2023-08-30T07:25:02;7.80;;;6.10;;
11453;SDS011;5783;55.174;61.310;2023-08-30T07:27:32;7.23;;;5.70;;
11453;SDS011;5783;55.174;61.310;2023-08-30T07:30:01;9.53;;;5.70;;
11453;SDS011;5783;55.174;61.310;2023-08-30T07:32:31;7.43;;;5.57;;
11453;SDS011;5783;55.174;61.310;2023-08-30T07:35:04;7.03;;;5.30;;
11453;SDS011;5783;55.174;61.310;2023-08-30T07:37:34;6.97;;;5.00;;
11453;SDS011;5783;55.174;61.310;2023-08-30T07:40:03;5.80;;;4.63;;
11453;SDS011;5783;55.174;61.310;2023-08-30T07:42:33;5.60;;;4.73;;
11453;SDS011;5783;55.174;61.310;2023-08-30T07:45:02;7.07;;;4.57;;
11453;SDS011;5783;55.174;61.310;2023-08-30T07:47:33;5.07;;;4.23;;
11453;SDS011;5783;55.174;61.310;2023-08-30T07:50:04;5.37;;;4.47;;
11453;SDS011;5783;55.174;61.310;2023-08-30T07:52:33;6.00;;;4.70;;
11453;SDS011;5783;55.174;61.310;2023-08-30T07:55:03;5.67;;;4.10;;
11453;SDS011;5783;55.174;61.310;2023-08-30T07:57:36;5.30;;;4.23;;
11453;SDS011;5783;55.174;61.310;2023-08-30T08:00:25;5.73;;;4.40;;
11453;SDS011;5783;55.174;61.310;2023-08-30T08:02:56;4.93;;;4.03;;
11453;SDS011;5783;55.174;61.310;2023-08-30T08:05:25;4.60;;;3.93;;
11453;SDS011;5783;55.174;61.310;2023-08-30T08:07:54;5.67;;;4.10;;
11453;SDS011;5783;55.174;61.310;2023-08-30T08:10:27;5.07;;;4.00;;
11453;SDS011;5783;55.174;61.310;2023-08-30T08:12:57;4.97;;;4.30;;
11453;SDS011;5783;55.174;61.310;2023-08-30T08:15:27;4.47;;;3.63;;
11453;SDS011;5783;55.174;61.310;2023-08-30T08:17:57;4.47;;;3.80;;
11453;SDS011;5783;55.174;61.310;2023-08-30T08:20:26;5.07;;;4.07;;
11453;SDS011;5783;55.174;61.310;2023-08-30T08:22:56;4.37;;;3.60;;
11453;SDS011;5783;55.174;61.310;2023-08-30T08:25:25;4.27;;;3.50;;
11453;SDS011;5783;55.174;61.310;2023-08-30T08:27:54;4.13;;;3.60;;
11453;SDS011;5783;55.174;61.310;2023-08-30T08:30:24;4.50;;;3.60;;
11453;SDS011;5783;55.174;61.310;2023-08-30T08:32:53;4.50;;;3.53;;
11453;SDS011;5783;55.174;61.310;2023-08-30T08:35:22;4.23;;;3.40;;
11453;SDS011;5783;55.174;61.310;2023-08-30T08:37:51;5.40;;;3.50;;
11453;SDS011;5783;55.174;61.310;2023-08-30T08:40:20;4.10;;;3.47;;
11453;SDS011;5783;55.174;61.310;2023-08-30T08:42:50;5.27;;;3.80;;
11453;SDS011;5783;55.174;61.310;2023-08-30T08:45:21;3.53;;;3.03;;
11453;SDS011;5783;55.174;61.310;2023-08-30T08:47:52;4.97;;;3.40;;
11453;SDS011;5783;55.174;61.310;2023-08-30T08:50:41;3.83;;;3.20;;
11453;SDS011;5783;55.174;61.310;2023-08-30T08:53:12;3.97;;;2.77;;
11453;SDS011;5783;55.174;61.310;2023-08-30T08:55:42;3.97;;;3.33;;
11453;SDS011;5783;55.174;61.310;2023-08-30T08:58:12;4.03;;;3.13;;
11453;SDS011;5783;55.174;61.310;2023-08-30T09:00:43;3.40;;;2.90;;
11453;SDS011;5783;55.174;61.310;2023-08-30T09:03:13;4.83;;;3.20;;
11453;SDS011;5783;55.174;61.310;2023-08-30T09:05:42;5.27;;;3.27;;
11453;SDS011;5783;55.174;61.310;2023-08-30T09:08:12;4.00;;;2.87;;
11453;SDS011;5783;55.174;61.310;2023-08-30T09:10:43;3.60;;;2.90;;
11453;SDS011;5783;55.174;61.310;2023-08-30T09:13:14;3.33;;;2.93;;
11453;SDS011;5783;55.174;61.310;2023-08-30T09:15:44;3.17;;;2.83;;
11453;SDS011;5783;55.174;61.310;2023-08-30T09:20:44;3.63;;;2.83;;
11453;SDS011;5783;55.174;61.310;2023-08-30T09:26:03;3.53;;;2.60;;
11453;SDS011;5783;55.174;61.310;2023-08-30T09:28:41;3.17;;;2.60;;
11453;SDS011;5783;55.174;61.310;2023-08-30T09:31:23;3.30;;;2.90;;
11453;SDS011;5783;55.174;61.310;2023-08-30T09:33:57;3.30;;;2.70;;
11453;SDS011;5783;55.174;61.310;2023-08-30T09:36:25;2.73;;;2.30;;
11453;SDS011;5783;55.174;61.310;2023-08-30T09:38:54;2.93;;;2.60;;
11453;SDS011;5783;55.174;61.310;2023-08-30T09:41:24;3.07;;;2.20;;
11453;SDS011;5783;55.174;61.310;2023-08-30T09:43:55;3.20;;;2.23;;
11453;SDS011;5783;55.174;61.310;2023-08-30T09:46:23;2.60;;;2.40;;
11453;SDS011;5783;55.174;61.310;2023-08-30T09:48:53;2.40;;;2.20;;
11453;SDS011;5783;55.174;61.310;2023-08-30T09:51:24;3.43;;;2.20;;
11453;SDS011;5783;55.174;61.310;2023-08-30T09:53:56;2.47;;;2.00;;
11453;SDS011;5783;55.174;61.310;2023-08-30T09:56:26;3.00;;;2.40;;
11453;SDS011;5783;55.174;61.310;2023-08-30T09:58:57;3.50;;;2.23;;
11453;SDS011;5783;55.174;61.310;2023-08-30T10:01:27;4.33;;;2.27;;
11453;SDS011;5783;55.174;61.310;2023-08-30T10:03:57;2.37;;;2.00;;
11453;SDS011;5783;55.174;61.310;2023-08-30T10:06:28;3.33;;;2.10;;
11453;SDS011;5783;55.174;61.310;2023-08-30T10:08:58;3.07;;;2.20;;
11453;SDS011;5783;55.174;61.310;2023-08-30T10:11:32;2.07;;;1.87;;
11453;SDS011;5783;55.174;61.310;2023-08-30T10:14:03;2.10;;;1.90;;
11453;SDS011;5783;55.174;61.310;2023-08-30T10:19:24;3.40;;;2.03;;
11453;SDS011;5783;55.174;61.310;2023-08-30T10:24:45;3.97;;;2.37;;
11453;SDS011;5783;55.174;61.310;2023-08-30T10:27:36;2.13;;;1.93;;
11453;SDS011;5783;55.174;61.310;2023-08-30T10:30:08;3.17;;;2.37;;
11453;SDS011;5783;55.174;61.310;2023-08-30T10:35:11;5.53;;;2.63;;
11453;SDS011;5783;55.174;61.310;2023-08-30T10:37:41;5.30;;;2.97;;
11453;SDS011;5783;55.174;61.310;2023-08-30T10:40:12;3.83;;;2.50;;
11453;SDS011;5783;55.174;61.310;2023-08-30T10:42:43;5.23;;;2.40;;
11453;SDS011;5783;55.174;61.310;2023-08-30T10:45:13;3.50;;;2.60;;
11453;SDS011;5783;55.174;61.310;2023-08-30T10:47:42;5.10;;;2.77;;
11453;SDS011;5783;55.174;61.310;2023-08-30T10:50:11;6.37;;;2.90;;
11453;SDS011;5783;55.174;61.310;2023-08-30T10:52:41;4.07;;;2.67;;
11453;SDS011;5783;55.174;61.310;2023-08-30T10:58:00;3.70;;;2.60;;
11453;SDS011;5783;55.174;61.310;2023-08-30T11:00:50;4.07;;;2.30;;
11453;SDS011;5783;55.174;61.310;2023-08-30T11:03:20;5.10;;;2.50;;
11453;SDS011;5783;55.174;61.310;2023-08-30T11:05:50;4.53;;;2.40;;
11453;SDS011;5783;55.174;61.310;2023-08-30T11:08:22;4.23;;;2.90;;
11453;SDS011;5783;55.174;61.310;2023-08-30T11:11:00;5.50;;;3.00;;
11453;SDS011;5783;55.174;61.310;2023-08-30T11:13:42;6.90;;;3.07;;
11453;SDS011;5783;55.174;61.310;2023-08-30T11:16:11;5.30;;;3.27;;
11453;SDS011;5783;55.174;61.310;2023-08-30T11:18:40;5.23;;;3.00;;
11453;SDS011;5783;55.174;61.310;2023-08-30T11:21:09;9.00;;;3.83;;
11453;SDS011;5783;55.174;61.310;2023-08-30T11:23:38;7.07;;;4.00;;
11453;SDS011;5783;55.174;61.310;2023-08-30T11:26:08;6.33;;;3.97;;
11453;SDS011;5783;55.174;61.310;2023-08-30T11:28:38;6.03;;;3.60;;
11453;SDS011;5783;55.174;61.310;2023-08-30T11:34:01;6.83;;;3.90;;
11453;SDS011;5783;55.174;61.310;2023-08-30T11:36:31;6.43;;;4.00;;
11453;SDS011;5783;55.174;61.310;2023-08-30T11:39:03;8.87;;;4.13;;
11453;SDS011;5783;55.174;61.310;2023-08-30T11:41:32;6.07;;;3.80;;
11453;SDS011;5783;55.174;61.310;2023-08-30T11:44:02;10.33;;;4.13;;
11453;SDS011;5783;55.174;61.310;2023-08-30T11:46:32;9.83;;;4.30;;
11453;SDS011;5783;55.174;61.310;2023-08-30T11:49:02;7.27;;;3.83;;
11453;SDS011;5783;55.174;61.310;2023-08-30T11:51:31;6.43;;;4.47;;
11453;SDS011;5783;55.174;61.310;2023-08-30T11:54:03;11.37;;;4.43;;
11453;SDS011;5783;55.174;61.310;2023-08-30T11:56:34;6.27;;;4.40;;
11453;SDS011;5783;55.174;61.310;2023-08-30T11:59:04;7.90;;;4.47;;
11453;SDS011;5783;55.174;61.310;2023-08-30T12:01:52;7.37;;;4.50;;
11453;SDS011;5783;55.174;61.310;2023-08-30T12:04:22;9.73;;;4.60;;
11453;SDS011;5783;55.174;61.310;2023-08-30T12:12:48;7.80;;;3.93;;
11453;SDS011;5783;55.174;61.310;2023-08-30T12:15:17;8.20;;;4.50;;
11453;SDS011;5783;55.174;61.310;2023-08-30T12:17:47;7.27;;;4.27;;
11453;SDS011;5783;55.174;61.310;2023-08-30T12:20:16;5.30;;;3.80;;
11453;SDS011;5783;55.174;61.310;2023-08-30T12:23:06;7.57;;;4.00;;
11453;SDS011;5783;55.174;61.310;2023-08-30T12:25:35;6.27;;;4.50;;
11453;SDS011;5783;55.174;61.310;2023-08-30T12:28:04;8.33;;;4.77;;
11453;SDS011;5783;55.174;61.310;2023-08-30T12:30:33;7.87;;;4.43;;
11453;SDS011;5783;55.174;61.310;2023-08-30T12:33:02;7.30;;;4.60;;
11453;SDS011;5783;55.174;61.310;2023-08-30T12:35:32;7.20;;;4.53;;
11453;SDS011;5783;55.174;61.310;2023-08-30T12:38:01;7.57;;;4.87;;
11453;SDS011;5783;55.174;61.310;2023-08-30T12:40:32;8.43;;;5.20;;
11453;SDS011;5783;55.174;61.310;2023-08-30T12:43:01;6.37;;;4.80;;
11453;SDS011;5783;55.174;61.310;2023-08-30T12:45:31;6.30;;;4.60;;
11453;SDS011;5783;55.174;61.310;2023-08-30T12:48:00;6.33;;;4.43;;
11453;SDS011;5783;55.174;61.310;2023-08-30T12:50:29;5.43;;;4.33;;
11453;SDS011;5783;55.174;61.310;2023-08-30T12:52:58;7.57;;;4.50;;
11453;SDS011;5783;55.174;61.310;2023-08-30T12:55:27;8.07;;;4.70;;
11453;SDS011;5783;55.174;61.310;2023-08-30T12:57:57;6.27;;;4.60;;
11453;SDS011;5783;55.174;61.310;2023-08-30T13:00:26;6.53;;;4.47;;
11453;SDS011;5783;55.174;61.310;2023-08-30T13:02:55;6.67;;;4.63;;
11453;SDS011;5783;55.174;61.310;2023-08-30T13:05:25;6.77;;;4.43;;
11453;SDS011;5783;55.174;61.310;2023-08-30T13:07:54;6.47;;;4.30;;
11453;SDS011;5783;55.174;61.310;2023-08-30T13:10:23;5.73;;;4.50;;
11453;SDS011;5783;55.174;61.310;2023-08-30T13:12:53;6.00;;;4.50;;
11453;SDS011;5783;55.174;61.310;2023-08-30T13:15:23;6.77;;;4.90;;
11453;SDS011;5783;55.174;61.310;2023-08-30T13:17:52;6.43;;;4.73;;
11453;SDS011;5783;55.174;61.310;2023-08-30T13:20:22;5.20;;;4.20;;
11453;SDS011;5783;55.174;61.310;2023-08-30T13:22:52;6.40;;;4.47;;
11453;SDS011;5783;55.174;61.310;2023-08-30T13:28:10;8.00;;;4.40;;
11453;SDS011;5783;55.174;61.310;2023-08-30T13:33:28;6.20;;;4.50;;
11453;SDS011;5783;55.174;61.310;2023-08-30T13:35:57;5.63;;;4.13;;
11453;SDS011;5783;55.174;61.310;2023-08-30T13:38:28;6.80;;;4.13;;
11453;SDS011;5783;55.174;61.310;2023-08-30T13:40:58;6.23;;;3.80;;
11453;SDS011;5783;55.174;61.310;2023-08-30T13:43:29;7.13;;;3.93;;
11453;SDS011;5783;55.174;61.310;2023-08-30T13:45:59;5.97;;;3.97;;
11453;SDS011;5783;55.174;61.310;2023-08-30T13:48:28;7.07;;;3.77;;
11453;SDS011;5783;55.174;61.310;2023-08-30T13:50:58;7.17;;;3.60;;
11453;SDS011;5783;55.174;61.310;2023-08-30T13:53:27;5.83;;;3.90;;
11453;SDS011;5783;55.174;61.310;2023-08-30T13:55:56;5.37;;;3.57;;
11453;SDS011;5783;55.174;61.310;2023-08-30T13:58:25;6.57;;;3.80;;
11453;SDS011;5783;55.174;61.310;2023-08-30T14:00:54;5.07;;;3.60;;
11453;SDS011;5783;55.174;61.310;2023-08-30T14:03:23;7.30;;;3.90;;
11453;SDS011;5783;55.174;61.310;2023-08-30T14:05:53;6.33;;;3.63;;
11453;SDS011;5783;55.174;61.310;2023-08-30T14:08:22;6.47;;;3.57;;
11453;SDS011;5783;55.174;61.310;2023-08-30T14:10:51;5.53;;;3.30;;
11453;SDS011;5783;55.174;61.310;2023-08-30T14:13:20;5.30;;;3.70;;
11453;SDS011;5783;55.174;61.310;2023-08-30T14:15:49;5.00;;;3.47;;
11453;SDS011;5783;55.174;61.310;2023-08-30T14:18:18;7.80;;;3.40;;
11453;SDS011;5783;55.174;61.310;2023-08-30T14:20:47;5.93;;;3.93;;
11453;SDS011;5783;55.174;61.310;2023-08-30T14:23:17;8.23;;;4.07;;
11453;SDS011;5783;55.174;61.310;2023-08-30T14:25:46;7.83;;;4.03;;
11453;SDS011;5783;55.174;61.310;2023-08-30T14:28:16;9.10;;;3.83;;
11453;SDS011;5783;55.174;61.310;2023-08-30T14:30:45;8.10;;;4.10;;
11453;SDS011;5783;55.174;61.310;2023-08-30T14:33:15;7.80;;;3.80;;
11453;SDS011;5783;55.174;61.310;2023-08-30T14:35:44;8.73;;;4.33;;
11453;SDS011;5783;55.174;61.310;2023-08-30T14:38:13;9.33;;;3.83;;
11453;SDS011;5783;55.174;61.310;2023-08-30T14:40:42;10.93;;;3.93;;
11453;SDS011;5783;55.174;61.310;2023-08-30T14:43:11;10.77;;;4.00;;
11453;SDS011;5783;55.174;61.310;2023-08-30T14:45:40;7.87;;;4.00;;
11453;SDS011;5783;55.174;61.310;2023-08-30T14:48:09;8.50;;;4.23;;
11453;SDS011;5783;55.174;61.310;2023-08-30T14:50:39;9.23;;;4.13;;
11453;SDS011;5783;55.174;61.310;2023-08-30T14:53:08;11.63;;;4.00;;
11453;SDS011;5783;55.174;61.310;2023-08-30T14:55:37;9.77;;;3.90;;
11453;SDS011;5783;55.174;61.310;2023-08-30T14:58:07;10.70;;;3.90;;
11453;SDS011;5783;55.174;61.310;2023-08-30T15:00:36;9.33;;;4.10;;
11453;SDS011;5783;55.174;61.310;2023-08-30T15:03:05;13.13;;;4.47;;
11453;SDS011;5783;55.174;61.310;2023-08-30T15:05:34;14.43;;;4.87;;
11453;SDS011;5783;55.174;61.310;2023-08-30T15:08:04;13.13;;;4.37;;
11453;SDS011;5783;55.174;61.310;2023-08-30T15:10:33;7.90;;;4.27;;
11453;SDS011;5783;55.174;61.310;2023-08-30T15:13:02;7.83;;;4.23;;
11453;SDS011;5783;55.174;61.310;2023-08-30T15:15:32;9.67;;;4.30;;
11453;SDS011;5783;55.174;61.310;2023-08-30T15:18:01;10.60;;;4.27;;
11453;SDS011;5783;55.174;61.310;2023-08-30T15:20:31;10.53;;;4.90;;
11453;SDS011;5783;55.174;61.310;2023-08-30T15:23:00;9.27;;;4.60;;
11453;SDS011;5783;55.174;61.310;2023-08-30T15:25:29;9.63;;;4.60;;
11453;SDS011;5783;55.174;61.310;2023-08-30T15:27:58;9.53;;;4.60;;
11453;SDS011;5783;55.174;61.310;2023-08-30T15:30:29;9.17;;;4.70;;
11453;SDS011;5783;55.174;61.310;2023-08-30T15:32:58;9.20;;;4.70;;
11453;SDS011;5783;55.174;61.310;2023-08-30T15:35:28;9.73;;;4.60;;
11453;SDS011;5783;55.174;61.310;2023-08-30T15:37:57;10.10;;;4.73;;
11453;SDS011;5783;55.174;61.310;2023-08-30T15:40:26;8.27;;;4.53;;
11453;SDS011;5783;55.174;61.310;2023-08-30T15:42:57;8.77;;;4.30;;
11453;SDS011;5783;55.174;61.310;2023-08-30T15:45:26;10.67;;;4.30;;
11453;SDS011;5783;55.174;61.310;2023-08-30T15:47:56;7.07;;;3.77;;
11453;SDS011;5783;55.174;61.310;2023-08-30T15:50:25;7.33;;;3.90;;
11453;SDS011;5783;55.174;61.310;2023-08-30T15:52:54;5.70;;;3.70;;
11453;SDS011;5783;55.174;61.310;2023-08-30T15:55:24;6.33;;;3.80;;
11453;SDS011;5783;55.174;61.310;2023-08-30T15:57:54;5.37;;;3.80;;
11453;SDS011;5783;55.174;61.310;2023-08-30T16:00:24;6.30;;;3.73;;
11453;SDS011;5783;55.174;61.310;2023-08-30T16:02:53;5.97;;;4.13;;
11453;SDS011;5783;55.174;61.310;2023-08-30T16:05:24;6.90;;;4.43;;